createdAt,value
2019-03-18T00:01:55.700Z,90.435791
2019-03-18T00:07:18.310Z,90.643311
2019-03-18T00:12:40.925Z,91.162109
2019-03-18T00:18:03.536Z,91.577148
2019-03-18T00:23:26.244Z,91.015625
2019-03-18T00:28:48.862Z,91.015625
2019-03-18T00:34:11.486Z,90.600586
2019-03-18T00:39:34.687Z,90.039062
2019-03-18T00:44:57.418Z,90.039062
2019-03-18T00:50:21.103Z,89.788818
2019-03-18T00:55:45.629Z,90.557861
2019-03-18T01:01:08.226Z,91.387939
2019-03-18T01:06:30.916Z,90.307617
2019-03-18T01:11:53.529Z,90.618896
2019-03-18T01:17:16.183Z,90.618896
2019-03-18T01:22:38.781Z,90.826416
2019-03-18T01:28:01.413Z,90.618896
2019-03-18T01:33:24.065Z,92.694092
2019-03-18T01:38:46.676Z,93.530273
2019-03-18T01:44:09.758Z,95.336914
2019-03-18T01:49:32.334Z,96.789551
2019-03-18T01:54:54.969Z,98.187256
2019-03-18T02:00:17.574Z,98.602295
2019-03-18T02:05:40.200Z,97.979736
2019-03-18T02:11:02.863Z,99.639893
2019-03-18T02:16:25.489Z,99.993896
2019-03-18T02:21:48.108Z,99.993896
2019-03-18T02:27:10.771Z,99.993896
2019-03-18T02:32:33.387Z,99.993896
2019-03-18T02:37:56.613Z,99.993896
2019-03-18T02:43:19.238Z,99.993896
2019-03-18T02:48:41.870Z,99.993896
2019-03-18T02:54:04.514Z,99.993896
2019-03-18T02:59:27.130Z,99.993896
2019-03-18T03:04:49.789Z,99.993896
2019-03-18T03:10:12.483Z,99.993896
2019-03-18T03:15:35.047Z,99.993896
2019-03-18T03:20:57.667Z,99.993896
2019-03-18T03:26:20.313Z,99.993896
2019-03-18T03:31:43.794Z,99.993896
2019-03-18T03:37:06.442Z,99.993896
2019-03-18T03:42:29.071Z,99.993896
2019-03-18T03:47:51.704Z,99.993896
2019-03-18T03:53:14.371Z,99.993896
2019-03-18T03:58:37.025Z,99.993896
2019-03-18T04:03:59.741Z,99.993896
2019-03-18T04:09:23.474Z,99.993896
2019-03-18T04:14:46.165Z,99.993896
2019-03-18T04:20:08.792Z,99.993896
2019-03-18T04:25:31.415Z,99.993896
2019-03-18T04:30:55.100Z,99.993896
2019-03-18T04:36:17.859Z,99.993896
2019-03-18T04:41:41.534Z,99.993896
2019-03-18T04:47:13.626Z,99.993896
2019-03-18T04:52:27.966Z,99.993896
2019-03-18T04:57:50.669Z,99.993896
2019-03-18T05:03:13.360Z,99.993896
2019-03-18T05:08:36.003Z,99.993896
2019-03-18T05:13:58.676Z,99.993896
2019-03-18T05:19:21.316Z,99.993896
2019-03-18T05:24:43.962Z,99.993896
2019-03-18T05:30:06.620Z,99.993896
2019-03-18T05:35:29.283Z,99.993896
2019-03-18T05:40:51.986Z,99.993896
2019-03-18T05:46:14.669Z,99.993896
2019-03-18T05:51:38.018Z,99.993896
2019-03-18T05:57:00.684Z,99.993896
2019-03-18T06:02:23.414Z,99.993896
2019-03-18T06:07:46.138Z,99.993896
2019-03-18T06:13:09.738Z,99.993896
2019-03-18T06:18:32.401Z,99.993896
2019-03-18T06:23:55.055Z,99.993896
2019-03-18T06:29:17.729Z,99.993896
2019-03-18T06:34:40.414Z,99.993896
2019-03-18T06:40:06.365Z,98.937988
2019-03-18T06:45:29.057Z,98.31543
2019-03-18T06:50:51.812Z,98.626709
2019-03-18T06:56:14.455Z,97.277832
2019-03-18T07:01:37.207Z,98.00415
2019-03-18T07:06:59.909Z,97.753906
2019-03-18T07:12:22.576Z,95.947266
2019-03-18T07:17:46.090Z,94.287109
2019-03-18T07:23:08.750Z,94.970703
2019-03-18T07:28:32.039Z,95.593262
2019-03-18T07:33:54.733Z,95.697021
2019-03-18T07:39:19.213Z,93.829346
2019-03-18T07:44:41.871Z,93.579102
2019-03-18T07:50:04.520Z,92.712402
2019-03-18T07:55:27.157Z,92.297363
2019-03-18T08:00:50.833Z,92.132568
2019-03-18T08:06:14.094Z,93.121338
2019-03-18T08:11:36.744Z,92.150879
2019-03-18T08:16:59.463Z,89.788818
2019-03-18T08:22:22.145Z,89.215088
2019-03-18T08:27:44.802Z,89.440918
2019-03-18T08:33:07.532Z,87.371826
2019-03-18T08:38:30.168Z,85.931396
2019-03-18T08:43:52.908Z,86.132812
2019-03-18T08:49:15.649Z,85.9375
2019-03-18T08:54:38.733Z,84.161377
2019-03-18T09:00:01.442Z,81.414795
2019-03-18T09:05:24.222Z,83.331299
2019-03-18T09:10:46.928Z,81.610107
2019-03-18T09:16:09.568Z,80.236816
2019-03-18T09:21:32.262Z,81.091309
2019-03-18T09:27:02.122Z,80.090332
2019-03-18T09:32:18.584Z,77.313232
2019-03-18T09:37:41.253Z,80.059814
2019-03-18T09:43:04.902Z,73.608398
2019-03-18T09:48:27.574Z,76.2146
2019-03-18T09:53:50.885Z,74.291992
2019-03-18T09:59:13.613Z,70.758057
2019-03-18T10:04:36.246Z,67.602539
2019-03-18T10:09:58.944Z,67.706299
2019-03-18T10:15:21.583Z,66.998291
2019-03-18T10:20:44.270Z,69.63501
2019-03-18T10:26:07.200Z,65.997314
2019-03-18T10:31:29.873Z,66.748047
2019-03-18T10:36:52.500Z,68.530273
2019-03-18T10:42:15.163Z,66.638184
2019-03-18T10:47:37.809Z,70.751953
2019-03-18T10:53:00.453Z,84.509277
2019-03-18T10:58:23.171Z,93.511963
2019-03-18T11:03:44.800Z,97.039795
2019-03-18T11:09:07.523Z,96.600342
2019-03-18T11:14:30.194Z,94.494629
2019-03-18T11:19:58.130Z,92.254639
2019-03-18T11:25:15.539Z,89.562988
2019-03-18T11:30:38.192Z,91.381836
2019-03-18T11:36:01.019Z,92.541504
2019-03-18T11:41:23.777Z,88.446045
2019-03-18T11:46:46.439Z,87.994385
2019-03-18T11:52:10.166Z,77.075195
2019-03-18T11:57:32.869Z,81.762695
2019-03-18T12:02:55.570Z,82.15332
2019-03-18T12:08:18.313Z,73.913574
2019-03-18T12:13:42.110Z,73.675537
2019-03-18T12:19:04.806Z,66.040039
2019-03-18T12:24:27.466Z,70.495605
2019-03-18T12:29:50.260Z,77.148438
2019-03-18T12:35:13.066Z,84.454346
2019-03-18T12:40:36.764Z,90.264893
2019-03-18T12:45:59.488Z,90.332031
2019-03-18T12:51:22.192Z,85.50415
2019-03-18T12:56:46.513Z,87.145996
2019-03-18T13:02:09.354Z,83.825684
2019-03-18T13:07:32.058Z,80.377197
2019-03-18T13:12:54.919Z,70.52002
2019-03-18T13:18:17.570Z,74.56665
2019-03-18T13:23:40.398Z,71.624756
2019-03-18T13:29:03.120Z,65.948486
2019-03-18T13:34:25.874Z,70.043945
2019-03-18T13:39:48.586Z,71.209717
2019-03-18T13:45:11.235Z,68.566895
2019-03-18T13:50:33.920Z,70.422363
2019-03-18T13:55:56.778Z,64.953613
2019-03-18T14:01:19.397Z,65.057373
2019-03-18T14:06:42.261Z,63.458252
2019-03-18T14:12:04.881Z,60.437012
2019-03-18T14:17:27.533Z,62.579346
2019-03-18T14:22:50.192Z,69.012451
2019-03-18T14:28:12.808Z,66.61377
2019-03-18T14:33:36.336Z,60.803223
2019-03-18T14:38:59.829Z,62.390137
2019-03-18T14:44:22.483Z,60.131836
2019-03-18T14:49:46.274Z,63.635254
2019-03-18T14:55:10.138Z,63.250732
2019-03-18T15:00:30.798Z,59.008789
2019-03-18T15:05:53.467Z,61.138916
2019-03-18T15:11:16.172Z,59.204102
2019-03-18T15:16:39.555Z,56.768799
2019-03-18T15:22:02.293Z,56.433105
2019-03-18T15:27:24.939Z,61.474609
2019-03-18T15:32:47.592Z,63.48877
2019-03-18T15:38:10.270Z,62.591553
2019-03-18T15:43:34.494Z,62.591553
2019-03-18T15:48:57.144Z,63.928223
2019-03-18T15:54:19.814Z,61.151123
2019-03-18T15:59:42.486Z,62.072754
2019-03-18T16:05:05.112Z,60.913086
2019-03-18T16:10:27.856Z,57.080078
2019-03-18T16:15:50.496Z,58.032227
2019-03-18T16:21:13.118Z,59.527588
2019-03-18T16:26:35.847Z,61.279297
2019-03-18T16:32:10.675Z,62.414551
2019-03-18T16:37:23.077Z,62.133789
2019-03-18T16:42:45.724Z,62.591553
2019-03-18T16:48:08.476Z,63.824463
2019-03-18T16:53:31.018Z,64.135742
2019-03-18T16:58:54.356Z,62.176514
2019-03-18T17:04:17.214Z,67.633057
2019-03-18T17:09:39.951Z,66.870117
2019-03-18T17:15:02.777Z,69.0979
2019-03-18T17:20:25.524Z,70.166016
2019-03-18T17:25:48.357Z,71.331787
2019-03-18T17:31:11.189Z,73.669434
2019-03-18T17:36:33.861Z,75.427246
2019-03-18T17:41:56.596Z,76.495361
2019-03-18T17:47:19.369Z,76.531982
2019-03-18T17:52:42.010Z,76.086426
2019-03-18T17:58:06.000Z,77.392578
2019-03-18T18:03:29.156Z,80.291748
2019-03-18T18:08:51.797Z,77.978516
2019-03-18T18:14:14.517Z,77.362061
2019-03-18T18:19:37.169Z,79.772949
2019-03-18T18:24:59.888Z,77.807617
2019-03-18T18:30:22.661Z,77.600098
2019-03-18T18:35:45.481Z,77.087402
2019-03-18T18:41:08.089Z,77.392578
2019-03-18T18:46:31.559Z,77.947998
2019-03-18T18:51:54.196Z,79.638672
2019-03-18T18:57:16.849Z,81.750488
2019-03-18T19:02:39.504Z,84.521484
2019-03-18T19:08:02.128Z,85.809326
2019-03-18T19:13:24.939Z,84.313965
2019-03-18T19:18:47.616Z,83.966064
2019-03-18T19:24:11.079Z,84.521484
2019-03-18T19:29:34.624Z,85.040283
2019-03-18T19:34:57.363Z,84.625244
2019-03-18T19:40:20.141Z,84.313965
2019-03-18T19:45:42.941Z,83.795166
2019-03-18T19:51:05.737Z,83.172607
2019-03-18T19:56:28.472Z,84.002686
2019-03-18T20:01:52.188Z,84.521484
2019-03-18T20:07:15.911Z,83.795166
2019-03-18T20:12:38.599Z,84.979248
2019-03-18T20:18:01.477Z,85.083008
2019-03-18T20:23:24.711Z,85.083008
2019-03-18T20:28:47.355Z,85.186768
2019-03-18T20:34:10.046Z,85.638428
2019-03-18T20:39:32.698Z,87.37793
2019-03-18T20:44:55.512Z,89.978027
2019-03-18T20:50:18.245Z,89.770508
2019-03-18T20:55:41.424Z,89.599609
2019-03-18T21:01:04.331Z,90.893555
2019-03-18T21:06:27.093Z,91.07666
2019-03-18T21:11:49.896Z,93.353271
2019-03-18T21:17:12.788Z,95.123291
2019-03-18T21:22:35.295Z,95.330811
2019-03-18T21:27:57.985Z,95.391846
2019-03-18T21:33:20.622Z,94.750977
2019-03-18T21:38:43.350Z,96.502686
2019-03-18T21:44:05.999Z,96.966553
2019-03-18T21:49:28.679Z,98.425293
2019-03-18T21:54:51.328Z,98.205566
2019-03-18T22:00:13.969Z,98.187256
2019-03-18T22:05:36.663Z,99.920654
2019-03-18T22:10:59.361Z,99.993896
2019-03-18T22:16:22.040Z,99.993896
2019-03-18T22:21:44.818Z,99.993896
2019-03-18T22:27:07.661Z,99.993896
2019-03-18T22:32:30.396Z,99.993896
2019-03-18T22:37:53.101Z,99.993896
2019-03-18T22:43:15.828Z,99.993896
2019-03-18T22:48:38.580Z,99.993896
2019-03-18T22:54:01.309Z,99.993896
2019-03-18T22:59:24.179Z,99.993896
2019-03-18T23:04:46.921Z,99.993896
2019-03-18T23:10:09.639Z,99.993896
2019-03-18T23:15:32.461Z,99.993896
2019-03-18T23:20:55.171Z,99.993896
2019-03-18T23:26:17.875Z,99.993896
2019-03-18T23:31:40.664Z,99.993896
2019-03-18T23:37:03.433Z,99.993896
2019-03-18T23:42:26.084Z,99.993896
2019-03-18T23:47:48.786Z,99.993896
2019-03-18T23:53:12.060Z,99.993896
2019-03-18T23:58:35.433Z,99.993896
